Time;durP1;ratioP1;P1;durP2;ratioP2;P2;SDS_P1;SDS_P2;PMS_P1;PMS_P2;Temp;Humidity;BMP_temperature;BMP_pressure;BME280_temperature;BME280_humidity;BME280_pressure;Samples;Min_cycle;Max_cycle;Signal;HPM_P1;HPM_P2
2022/07/12 00:01:50;;;;;;;3.90;2.80;;;22.70;1.00;;;;;;5118705;28;20171;-76
2022/07/12 00:04:16;;;;;;;3.43;2.63;;;22.70;1.00;;;;;;5117825;28;20742;-76
2022/07/12 00:06:42;;;;;;;6.50;2.70;;;22.70;1.00;;;;;;5103917;28;20151;-81
2022/07/12 00:09:08;;;;;;;4.90;3.40;;;22.70;1.00;;;;;;5098809;28;20175;-80
2022/07/12 00:11:36;;;;;;;4.73;3.10;;;22.70;1.00;;;;;;5100968;28;20177;-79
2022/07/12 00:14:03;;;;;;;3.60;3.07;;;22.70;1.00;;;;;;5103979;28;20160;-76
2022/07/12 00:16:29;;;;;;;4.57;3.37;;;22.70;1.00;;;;;;5116873;28;20188;-80
2022/07/12 00:18:54;;;;;;;6.37;3.20;;;22.60;1.00;;;;;;5106694;28;20263;-83
2022/07/12 00:21:20;;;;;;;4.20;3.80;;;22.60;1.00;;;;;;5100523;28;20247;-81
2022/07/12 00:23:46;;;;;;;4.77;3.60;;;22.50;1.00;;;;;;5100252;28;20170;-81
2022/07/12 00:26:12;;;;;;;6.10;3.50;;;22.40;1.00;;;;;;5094724;28;20214;-81
2022/07/12 00:28:39;;;;;;;4.47;3.13;;;22.40;1.00;;;;;;5094740;28;20166;-81
2022/07/12 00:31:05;;;;;;;5.67;3.60;;;22.40;1.00;;;;;;5094584;28;20228;-81
2022/07/12 00:33:30;;;;;;;3.90;3.17;;;22.20;1.00;;;;;;5094418;28;20167;-81
2022/07/12 00:35:56;;;;;;;3.80;3.40;;;22.30;1.00;;;;;;5095272;28;20176;-81
2022/07/12 00:38:22;;;;;;;4.10;3.00;;;22.30;1.00;;;;;;5095231;28;20170;-81
2022/07/12 00:40:49;;;;;;;4.67;3.10;;;22.30;1.00;;;;;;5094851;28;20166;-79
2022/07/12 00:43:15;;;;;;;6.43;3.10;;;22.30;1.00;;;;;;5094709;28;20645;-81
2022/07/12 00:45:41;;;;;;;5.30;3.33;;;22.30;1.00;;;;;;5096787;28;20172;-80
2022/07/12 00:48:07;;;;;;;3.97;3.27;;;22.30;1.00;;;;;;5097381;28;20538;-80
2022/07/12 00:50:33;;;;;;;4.50;3.20;;;22.20;1.00;;;;;;5112577;28;20186;-80
2022/07/12 00:52:59;;;;;;;4.30;3.20;;;22.20;1.00;;;;;;5110951;28;20171;-81
2022/07/12 00:55:25;;;;;;;4.00;3.10;;;22.20;1.00;;;;;;5116446;28;20158;-77
2022/07/12 00:57:51;;;;;;;4.30;3.67;;;22.20;1.00;;;;;;5116713;28;20174;-77
2022/07/12 01:00:22;;;;;;;3.80;3.03;;;22.20;1.00;;;;;;5103410;28;20282;-80
2022/07/12 01:02:48;;;;;;;7.43;3.57;;;22.20;1.00;;;;;;5081306;28;20173;-82
2022/07/12 01:05:14;;;;;;;5.07;4.00;;;22.20;1.00;;;;;;5095771;28;20224;-79
2022/07/12 01:07:40;;;;;;;5.77;3.43;;;22.00;1.00;;;;;;5094064;28;20172;-80
2022/07/12 01:10:08;;;;;;;5.77;3.53;;;21.80;1.00;;;;;;5094804;28;20175;-80
2022/07/12 01:12:34;;;;;;;5.33;3.10;;;21.90;1.00;;;;;;5094114;28;20576;-79
2022/07/12 01:15:00;;;;;;;3.87;3.40;;;22.00;1.00;;;;;;5093714;28;20192;-81
2022/07/12 01:17:27;;;;;;;5.70;3.50;;;22.00;1.00;;;;;;5092476;28;20195;-81
2022/07/12 01:19:55;;;;;;;6.30;3.33;;;21.90;1.00;;;;;;5093723;28;20220;-78
2022/07/12 01:22:27;;;;;;;7.67;3.93;;;21.80;1.00;;;;;;5094104;28;20174;-80
2022/07/12 01:24:53;;;;;;;5.70;3.63;;;21.80;1.00;;;;;;5093840;28;20646;-79
2022/07/12 01:27:19;;;;;;;5.67;3.97;;;21.80;1.00;;;;;;5093767;28;20171;-81
2022/07/12 01:29:45;;;;;;;7.10;3.90;;;21.70;1.00;;;;;;5095594;28;20225;-80
2022/07/12 01:32:26;;;;;;;6.73;4.30;;;21.70;1.00;;;;;;5095205;28;20185;-83
2022/07/12 01:35:05;;;;;;;6.93;4.67;;;21.60;1.00;;;;;;5095069;28;20173;-79
2022/07/12 01:37:35;;;;;;;5.10;3.90;;;21.70;1.00;;;;;;5095614;28;20168;-82
2022/07/12 01:40:02;;;;;;;7.00;4.10;;;21.70;1.00;;;;;;5094968;28;20255;-82
2022/07/12 01:42:29;;;;;;;6.77;4.30;;;21.70;1.00;;;;;;5094644;28;20190;-80
2022/07/12 01:44:56;;;;;;;6.73;4.63;;;21.70;1.00;;;;;;5093701;28;20174;-81
2022/07/12 01:47:23;;;;;;;7.67;4.27;;;21.70;1.00;;;;;;5094989;28;20235;-81
2022/07/12 01:49:49;;;;;;;6.73;4.23;;;21.80;1.00;;;;;;5093895;28;20203;-80
2022/07/12 01:52:15;;;;;;;6.53;3.97;;;21.60;1.00;;;;;;5094463;28;20167;-83
2022/07/12 01:54:42;;;;;;;5.33;4.10;;;21.50;1.00;;;;;;5094936;28;20169;-79
2022/07/12 01:57:08;;;;;;;5.13;3.90;;;21.50;1.00;;;;;;5097122;28;20167;-78
2022/07/12 01:59:34;;;;;;;5.33;4.23;;;21.50;1.00;;;;;;5112385;28;20294;-82
2022/07/12 02:02:00;;;;;;;4.83;3.77;;;21.40;1.00;;;;;;5097885;28;20175;-81
2022/07/12 02:04:26;;;;;;;5.07;3.83;;;21.50;1.00;;;;;;5096021;28;20162;-81
2022/07/12 02:06:54;;;;;;;6.83;5.10;;;21.50;1.00;;;;;;5098923;28;20175;-82
2022/07/12 02:09:20;;;;;;;5.07;4.40;;;21.50;1.00;;;;;;5099265;28;20176;-83
2022/07/12 02:11:47;;;;;;;5.70;4.03;;;21.60;1.00;;;;;;5097889;28;20170;-79
2022/07/12 02:14:13;;;;;;;4.43;3.90;;;21.60;1.00;;;;;;5098500;28;20166;-81
2022/07/12 02:16:43;;;;;;;5.27;3.33;;;21.40;1.00;;;;;;5097617;28;20191;-81
2022/07/12 02:19:11;;;;;;;5.13;3.77;;;21.30;1.00;;;;;;5097834;28;20686;-81
2022/07/12 02:21:36;;;;;;;4.27;3.83;;;21.40;1.00;;;;;;5099358;28;20165;-81
2022/07/12 02:24:02;;;;;;;4.60;3.53;;;21.40;1.00;;;;;;5098862;28;20178;-81
2022/07/12 02:26:28;;;;;;;4.37;3.97;;;21.30;1.00;;;;;;5102750;28;20173;-81
2022/07/12 02:28:54;;;;;;;4.83;3.80;;;21.00;1.00;;;;;;5114039;28;20188;-81
2022/07/12 02:31:20;;;;;;;4.00;3.20;;;21.00;1.00;;;;;;5114671;28;20211;-81
2022/07/12 02:33:46;;;;;;;4.03;3.53;;;20.90;1.00;;;;;;5119279;28;20164;-78
2022/07/12 02:36:12;;;;;;;4.57;3.50;;;20.80;3.10;;;;;;5120642;28;20164;-81
2022/07/12 02:38:38;;;;;;;4.60;3.60;;;20.70;4.50;;;;;;5110305;28;20227;-81
2022/07/12 02:41:04;;;;;;;4.40;4.00;;;20.60;8.70;;;;;;5111097;28;20185;-82
2022/07/12 02:43:30;;;;;;;5.63;3.60;;;20.70;7.10;;;;;;5105953;28;20240;-82
2022/07/12 02:46:10;;;;;;;4.80;3.70;;;20.70;5.80;;;;;;5104770;28;20585;-79
2022/07/12 02:48:36;;;;;;;5.97;4.00;;;20.80;6.20;;;;;;5099119;28;20194;-80
2022/07/12 02:51:03;;;;;;;4.73;4.00;;;20.80;4.60;;;;;;5114311;28;20176;-78
2022/07/12 02:53:29;;;;;;;5.63;4.33;;;20.70;7.90;;;;;;5113568;28;20170;-79
2022/07/12 02:55:55;;;;;;;4.90;3.70;;;20.70;6.80;;;;;;5115739;28;20145;-77
2022/07/12 02:58:21;;;;;;;5.27;4.10;;;20.70;7.30;;;;;;5121113;28;20161;-77
2022/07/12 03:00:47;;;;;;;5.50;4.23;;;20.50;10.40;;;;;;5113020;28;20183;-81
2022/07/12 03:03:13;;;;;;;5.97;4.33;;;20.40;14.00;;;;;;5111860;28;20178;-80
2022/07/12 03:05:40;;;;;;;5.10;4.50;;;20.40;15.20;;;;;;5113883;28;20183;-79
2022/07/12 03:08:09;;;;;;;5.27;4.50;;;20.40;15.00;;;;;;5114480;28;20157;-78
2022/07/12 03:10:35;;;;;;;4.77;4.23;;;20.40;14.90;;;;;;5115425;28;20160;-78
2022/07/12 03:13:02;;;;;;;6.33;4.40;;;20.50;13.40;;;;;;5111163;28;20166;-80
2022/07/12 03:15:28;;;;;;;4.70;4.20;;;20.60;11.20;;;;;;5100562;28;20178;-80
2022/07/12 03:17:54;;;;;;;6.13;4.43;;;20.60;8.30;;;;;;5101344;28;20667;-79
2022/07/12 03:20:21;;;;;;;5.30;4.40;;;20.70;7.60;;;;;;5095827;28;20211;-80
2022/07/12 03:22:48;;;;;;;4.93;4.43;;;20.70;6.90;;;;;;5095626;28;20169;-80
2022/07/12 03:25:14;;;;;;;5.80;4.40;;;20.70;7.30;;;;;;5095806;28;20182;-80
2022/07/12 03:27:41;;;;;;;5.47;4.50;;;20.70;6.10;;;;;;5095234;28;20199;-79
2022/07/12 03:30:08;;;;;;;6.47;4.20;;;20.80;5.50;;;;;;5095249;28;20654;-80
2022/07/12 03:32:34;;;;;;;5.40;4.13;;;20.80;4.60;;;;;;5095435;28;20164;-80
2022/07/12 03:35:00;;;;;;;5.63;4.47;;;20.80;2.80;;;;;;5095432;28;20544;-80
2022/07/12 03:37:27;;;;;;;7.00;4.23;;;20.90;2.70;;;;;;5095154;28;20165;-79
2022/07/12 03:39:56;;;;;;;5.93;4.20;;;20.80;2.90;;;;;;5097839;28;20349;-82
2022/07/12 03:42:22;;;;;;;6.10;4.20;;;20.90;2.00;;;;;;5108045;28;20162;-81
2022/07/12 03:44:47;;;;;;;4.37;3.97;;;20.80;5.70;;;;;;5101186;28;20717;-76
2022/07/12 03:47:13;;;;;;;6.43;4.23;;;20.70;7.00;;;;;;5112316;28;20206;-77
2022/07/12 03:49:39;;;;;;;5.00;4.13;;;20.80;5.10;;;;;;5114833;28;20177;-78
2022/07/12 03:52:05;;;;;;;6.47;3.97;;;20.90;1.20;;;;;;5106389;28;20605;-81
2022/07/12 03:54:30;;;;;;;4.30;3.67;;;21.00;1.00;;;;;;5098976;28;20624;-81
2022/07/12 03:57:14;;;;;;;5.17;4.23;;;21.00;1.00;;;;;;5097578;28;20180;-82
2022/07/12 03:59:44;;;;;;;5.30;4.07;;;21.00;1.00;;;;;;5098303;28;20202;-80
2022/07/12 04:02:11;;;;;;;4.63;3.93;;;21.10;1.00;;;;;;5098206;28;20184;-82
2022/07/12 04:04:37;;;;;;;6.47;4.67;;;21.00;1.00;;;;;;5097124;28;20170;-79
2022/07/12 04:07:03;;;;;;;5.73;4.60;;;21.10;1.00;;;;;;5097605;28;20599;-80
2022/07/12 04:09:29;;;;;;;6.03;4.50;;;21.10;1.00;;;;;;5096849;28;20205;-80
2022/07/12 04:11:54;;;;;;;6.80;4.27;;;20.90;1.00;;;;;;5096932;28;20170;-81
2022/07/12 04:14:20;;;;;;;8.10;5.00;;;20.90;1.00;;;;;;5097592;28;20174;-81
2022/07/12 04:16:46;;;;;;;5.20;4.43;;;20.90;1.00;;;;;;5095381;28;20641;-81
2022/07/12 04:19:11;;;;;;;5.03;4.03;;;20.90;1.00;;;;;;5094568;28;20207;-82
2022/07/12 04:21:38;;;;;;;7.43;4.77;;;20.90;1.00;;;;;;5095028;28;20180;-80
2022/07/12 04:24:05;;;;;;;6.10;5.23;;;21.10;1.00;;;;;;5093267;28;20620;-81
2022/07/12 04:26:31;;;;;;;5.60;4.47;;;21.10;1.00;;;;;;5094693;28;20245;-80
2022/07/12 04:28:57;;;;;;;5.73;4.80;;;21.10;1.00;;;;;;5094724;28;20248;-81
2022/07/12 04:31:24;;;;;;;5.57;4.80;;;21.20;1.00;;;;;;5096703;28;20206;-81
2022/07/12 04:33:50;;;;;;;6.30;4.27;;;21.30;1.00;;;;;;5095765;28;20223;-81
2022/07/12 04:36:16;;;;;;;5.37;4.50;;;21.40;1.00;;;;;;5096300;28;20633;-80
2022/07/12 04:38:42;;;;;;;5.70;4.83;;;21.50;1.00;;;;;;5095918;28;20183;-82
2022/07/12 04:41:07;;;;;;;9.27;4.90;;;21.50;1.00;;;;;;5095470;28;20178;-82
2022/07/12 04:43:33;;;;;;;6.23;4.80;;;21.50;1.00;;;;;;5094371;28;20180;-80
2022/07/12 04:46:06;;;;;;;5.57;4.63;;;21.60;1.00;;;;;;5094844;28;20216;-80
2022/07/12 04:48:32;;;;;;;8.00;5.00;;;21.60;1.00;;;;;;5095846;28;20184;-80
2022/07/12 04:50:58;;;;;;;7.57;5.73;;;21.60;1.00;;;;;;5095633;28;20173;-82
2022/07/12 04:53:23;;;;;;;5.70;5.10;;;21.50;1.00;;;;;;5095790;28;20616;-81
2022/07/12 04:55:50;;;;;;;7.43;5.13;;;21.40;1.00;;;;;;5113516;28;20160;-78
2022/07/12 04:58:16;;;;;;;6.93;5.60;;;21.40;1.00;;;;;;5114406;28;20165;-83
2022/07/12 05:00:41;;;;;;;7.77;5.27;;;21.30;1.00;;;;;;5115985;28;20213;-76
2022/07/12 05:03:07;;;;;;;6.87;5.20;;;21.30;1.00;;;;;;5116382;28;20178;-79
2022/07/12 05:05:33;;;;;;;6.87;5.03;;;21.40;1.00;;;;;;5101180;28;20244;-82
2022/07/12 05:07:59;;;;;;;6.53;4.83;;;21.50;1.00;;;;;;5096360;28;20511;-82
2022/07/12 05:10:25;;;;;;;6.53;4.90;;;21.60;1.00;;;;;;5094796;28;20169;-81
2022/07/12 05:12:51;;;;;;;5.93;4.83;;;21.50;1.00;;;;;;5095140;28;20536;-81
2022/07/12 05:15:18;;;;;;;7.73;5.60;;;21.60;1.00;;;;;;5095469;28;20580;-80
2022/07/12 05:17:43;;;;;;;5.43;4.93;;;21.60;1.00;;;;;;5097047;28;20178;-81
2022/07/12 05:20:09;;;;;;;9.00;4.83;;;21.70;1.00;;;;;;5109586;28;20195;-79
2022/07/12 05:22:35;;;;;;;9.00;5.30;;;21.60;1.00;;;;;;5115702;28;20168;-82
2022/07/12 05:25:01;;;;;;;8.10;5.40;;;21.80;1.00;;;;;;5112287;28;20180;-81
2022/07/12 05:27:26;;;;;;;10.03;5.47;;;21.60;1.00;;;;;;5106158;28;20180;-83
2022/07/12 05:29:53;;;;;;;6.40;5.43;;;21.80;1.00;;;;;;5093549;28;20252;-83
2022/07/12 05:32:19;;;;;;;8.97;5.20;;;21.90;1.00;;;;;;5093099;28;20250;-82
2022/07/12 05:34:44;;;;;;;8.50;5.80;;;21.90;1.00;;;;;;5093446;28;20645;-81
2022/07/12 05:37:10;;;;;;;9.63;5.83;;;22.10;1.00;;;;;;5094560;28;20205;-82
2022/07/12 05:39:35;;;;;;;8.33;5.80;;;22.00;1.00;;;;;;5096201;28;20643;-83
2022/07/12 05:42:01;;;;;;;8.37;6.00;;;22.10;1.00;;;;;;5101763;28;20214;-81
2022/07/12 05:44:27;;;;;;;10.30;5.93;;;22.10;1.00;;;;;;5113731;28;20186;-80
2022/07/12 05:46:52;;;;;;;9.17;6.03;;;22.20;1.00;;;;;;5113583;28;20179;-81
2022/07/12 05:49:18;;;;;;;7.07;5.43;;;22.30;1.00;;;;;;5112816;28;20175;-82
2022/07/12 05:54:28;;;;;;;7.87;6.30;;;22.50;1.00;;;;;;5098792;28;20170;-80
2022/07/12 05:56:56;;;;;;;6.83;5.77;;;22.50;1.00;;;;;;5097827;28;20175;-81
2022/07/12 05:59:25;;;;;;;7.30;5.60;;;22.60;1.00;;;;;;5099758;28;20190;-83
2022/07/12 06:01:51;;;;;;;8.63;5.93;;;22.70;1.00;;;;;;5110042;28;20181;-77
2022/07/12 06:04:16;;;;;;;7.80;5.90;;;22.70;1.00;;;;;;5121011;28;20166;-78
2022/07/12 06:06:42;;;;;;;7.37;5.83;;;22.70;1.00;;;;;;5106234;28;20182;-80
2022/07/12 06:09:08;;;;;;;8.17;6.87;;;22.70;1.00;;;;;;5103414;28;20175;-80
2022/07/12 06:11:33;;;;;;;8.10;6.40;;;22.90;1.00;;;;;;5099111;28;20638;-81
2022/07/12 06:13:59;;;;;;;8.20;6.77;;;23.00;1.00;;;;;;5098763;28;20237;-81
2022/07/12 06:16:25;;;;;;;8.27;6.20;;;23.10;1.00;;;;;;5098219;28;20544;-81
2022/07/12 06:18:51;;;;;;;10.47;8.47;;;23.30;1.00;;;;;;5097391;28;20234;-79
2022/07/12 06:21:16;;;;;;;9.87;8.53;;;23.30;1.00;;;;;;5099470;28;20184;-81
2022/07/12 06:23:42;;;;;;;12.37;9.47;;;23.20;1.00;;;;;;5097567;28;20615;-77
2022/07/12 06:26:08;;;;;;;11.73;8.20;;;23.30;1.00;;;;;;5111826;28;20169;-77
2022/07/12 06:28:33;;;;;;;9.60;8.17;;;23.50;1.00;;;;;;5121065;28;20162;-78
2022/07/12 06:31:00;;;;;;;9.47;7.97;;;23.70;1.00;;;;;;5107699;28;20231;-81
2022/07/12 06:33:26;;;;;;;9.23;8.33;;;23.80;1.00;;;;;;5100497;28;20172;-80
2022/07/12 06:35:53;;;;;;;8.73;7.93;;;23.70;1.00;;;;;;5098648;28;20666;-80
2022/07/12 06:38:18;;;;;;;8.97;7.37;;;23.60;1.00;;;;;;5098418;28;20237;-80
2022/07/12 06:40:44;;;;;;;8.90;8.03;;;23.50;1.00;;;;;;5097740;28;20200;-79
2022/07/12 06:43:10;;;;;;;8.03;7.23;;;23.60;1.00;;;;;;5095494;28;20171;-78
2022/07/12 06:45:36;;;;;;;8.93;8.10;;;23.50;1.00;;;;;;5095513;28;20619;-81
2022/07/12 06:48:02;;;;;;;7.90;7.10;;;23.30;1.00;;;;;;5096551;28;20179;-79
2022/07/12 06:50:28;;;;;;;8.93;8.13;;;23.40;1.00;;;;;;5095829;28;20207;-78
2022/07/12 06:52:54;;;;;;;9.03;7.13;;;23.40;1.00;;;;;;5095984;28;20179;-79
2022/07/12 06:55:19;;;;;;;7.50;6.60;;;23.50;1.00;;;;;;5096830;28;20163;-80
2022/07/12 06:57:45;;;;;;;7.27;6.60;;;23.50;1.00;;;;;;5096016;28;20163;-76
2022/07/12 07:00:11;;;;;;;8.40;6.97;;;23.40;1.00;;;;;;5095113;28;20246;-79
2022/07/12 07:02:39;;;;;;;8.37;6.97;;;23.40;1.00;;;;;;5095235;28;20654;-77
2022/07/12 07:05:05;;;;;;;7.40;6.70;;;23.40;1.00;;;;;;5102207;28;20167;-76
2022/07/12 07:07:31;;;;;;;8.67;7.00;;;23.60;1.00;;;;;;5102556;28;20172;-77
2022/07/12 07:09:56;;;;;;;7.37;6.77;;;23.70;1.00;;;;;;5097264;28;20511;-81
2022/07/12 07:12:22;;;;;;;8.43;7.63;;;23.80;1.00;;;;;;5097364;28;20703;-79
2022/07/12 07:14:48;;;;;;;8.47;7.67;;;23.90;1.00;;;;;;5098139;28;20494;-80
2022/07/12 07:17:16;;;;;;;8.87;7.73;;;23.80;1.00;;;;;;5097929;28;20189;-79
2022/07/12 07:19:42;;;;;;;9.67;8.30;;;23.80;1.00;;;;;;5099795;28;20256;-77
2022/07/12 07:22:08;;;;;;;9.90;7.47;;;23.70;1.00;;;;;;5105568;28;20599;-81
2022/07/12 07:24:34;;;;;;;9.63;7.40;;;23.50;1.00;;;;;;5096373;28;20180;-79
2022/07/12 07:26:59;;;;;;;8.27;7.47;;;23.60;1.00;;;;;;5095783;28;20246;-80
2022/07/12 07:32:11;;;;;;;8.80;7.87;;;23.60;1.00;;;;;;5095994;28;20549;-79
2022/07/12 07:34:36;;;;;;;9.47;7.63;;;23.70;1.00;;;;;;5095760;28;20178;-78
2022/07/12 07:37:02;;;;;;;9.90;7.40;;;24.00;1.00;;;;;;5095905;28;20250;-79
2022/07/12 07:39:29;;;;;;;13.13;11.87;;;24.20;1.00;;;;;;5096206;28;20263;-80
2022/07/12 07:41:56;;;;;;;9.20;7.57;;;24.40;1.00;;;;;;5096063;28;20214;-79
2022/07/12 07:44:23;;;;;;;8.37;7.43;;;24.40;1.00;;;;;;5097370;28;20171;-79
2022/07/12 07:46:49;;;;;;;7.97;7.13;;;24.50;1.00;;;;;;5096146;28;20183;-80
2022/07/12 07:49:14;;;;;;;9.03;7.20;;;24.80;1.00;;;;;;5096281;28;20229;-79
2022/07/12 07:51:40;;;;;;;8.03;6.77;;;24.80;1.00;;;;;;5096273;28;20569;-79
2022/07/12 07:54:07;;;;;;;9.07;7.07;;;24.70;1.00;;;;;;5095655;28;20225;-82
2022/07/12 07:56:33;;;;;;;8.60;7.10;;;24.60;1.00;;;;;;5095625;28;20647;-81
2022/07/12 07:58:59;;;;;;;8.80;7.20;;;24.70;1.00;;;;;;5092129;28;20202;-81
2022/07/12 08:01:42;;;;;;;7.63;6.50;;;24.70;1.00;;;;;;5084952;28;20191;-79
2022/07/12 08:04:18;;;;;;;7.97;7.03;;;24.70;1.00;;;;;;5074984;28;20262;-81
2022/07/12 08:06:44;;;;;;;10.13;6.90;;;24.80;1.00;;;;;;5077304;28;20175;-80
2022/07/12 08:09:11;;;;;;;8.33;6.33;;;25.10;1.00;;;;;;5095432;28;20164;-77
2022/07/12 08:11:37;;;;;;;9.10;6.80;;;25.20;99.90;;;;;;5092811;28;20160;-80
2022/07/12 08:14:07;;;;;;;7.97;6.37;;;25.20;99.90;;;;;;5083883;28;20247;-81
2022/07/12 08:16:33;;;;;;;8.53;6.60;;;25.30;99.90;;;;;;5076777;28;20543;-82
2022/07/12 08:19:01;;;;;;;8.50;6.23;;;25.10;99.90;;;;;;5076515;28;20211;-80
2022/07/12 08:21:26;;;;;;;6.87;5.57;;;25.20;99.90;;;;;;5075852;28;20172;-80
2022/07/12 08:23:53;;;;;;;8.17;6.30;;;25.20;99.90;;;;;;5073853;28;20172;-81
2022/07/12 08:26:19;;;;;;;8.10;6.40;;;25.40;99.90;;;;;;5078179;28;20710;-80
2022/07/12 08:28:45;;;;;;;7.50;6.60;;;25.50;99.90;;;;;;5096947;28;20172;-81
2022/07/12 08:31:13;;;;;;;9.03;5.77;;;25.50;99.90;;;;;;5091389;28;20198;-82
2022/07/12 08:33:40;;;;;;;7.67;6.87;;;25.70;99.90;;;;;;5083622;28;20160;-82
2022/07/12 08:36:06;;;;;;;7.47;6.67;;;25.80;99.90;;;;;;5075251;28;20262;-82
2022/07/12 08:38:33;;;;;;;7.27;5.97;;;26.00;99.90;;;;;;5075260;28;20162;-80
2022/07/12 08:40:59;;;;;;;7.37;5.60;;;26.00;45.70;;;;;;5077821;28;20711;-81
2022/07/12 08:43:26;;;;;;;6.60;5.93;;;26.20;1.00;;;;;;5083699;28;20267;-81
2022/07/12 08:45:51;;;;;;;9.02;5.78;;;26.30;99.90;;;;;;5087845;28;20632;-80
2022/07/12 08:48:17;;;;;;;5.67;5.17;;;26.40;33.30;;;;;;5084549;28;20182;-81
2022/07/12 08:51:01;;;;;;;7.87;5.43;;;26.40;1.00;;;;;;5075742;28;20258;-82
2022/07/12 08:53:27;;;;;;;6.38;5.78;;;26.30;1.00;;;;;;5094423;28;20193;-77
2022/07/12 08:55:52;;;;;;;5.97;4.80;;;26.30;1.00;;;;;;5091858;28;20168;-79
2022/07/12 08:58:18;;;;;;;5.68;5.13;;;26.40;1.00;;;;;;5094054;28;20172;-77
2022/07/12 09:00:44;;;;;;;6.55;5.45;;;26.70;99.90;;;;;;5082081;28;20626;-80
2022/07/12 09:03:12;;;;;;;5.80;5.17;;;26.70;1.00;;;;;;5076327;28;20538;-82
2022/07/12 09:05:39;;;;;;;7.90;5.60;;;26.80;96.70;;;;;;5075145;28;20642;-81
2022/07/12 09:08:06;;;;;;;7.75;5.38;;;27.00;61.60;;;;;;5074538;28;20199;-81
2022/07/12 09:10:33;;;;;;;7.28;5.50;;;27.00;99.90;;;;;;5073932;28;20180;-82
2022/07/12 09:12:59;;;;;;;5.22;4.70;;;27.10;35.80;;;;;;5073896;28;20287;-79
2022/07/12 09:15:25;;;;;;;6.32;5.25;;;26.80;1.00;;;;;;5072402;28;20172;-79
2022/07/12 09:17:59;;;;;;;5.95;5.30;;;26.90;1.00;;;;;;5074427;28;20250;-81
2022/07/12 09:20:36;;;;;;;5.70;5.10;;;27.10;99.90;;;;;;5074844;28;20231;-80
2022/07/12 09:23:08;;;;;;;5.93;5.33;;;27.00;1.00;;;;;;5083896;28;20167;-80
2022/07/12 09:25:36;;;;;;;7.22;5.13;;;27.00;1.00;;;;;;5096425;28;20168;-81
2022/07/12 09:28:06;;;;;;;5.22;4.72;;;27.00;99.90;;;;;;5083550;28;20262;-82
2022/07/12 09:30:33;;;;;;;7.05;5.55;;;27.10;41.50;;;;;;5085973;28;20245;-80
2022/07/12 09:36:06;;;;;;;5.45;4.95;;;27.20;99.90;;;;;;5074011;28;20187;-81
2022/07/12 09:38:36;;;;;;;7.47;5.13;;;27.00;99.90;;;;;;5073609;28;20176;-81
2022/07/12 09:41:06;;;;;;;6.38;4.78;;;27.00;1.00;;;;;;5073422;28;20547;-81
2022/07/12 09:43:33;;;;;;;8.43;5.57;;;27.30;99.90;;;;;;5073969;28;20179;-81
2022/07/12 09:46:00;;;;;;;5.80;5.20;;;27.40;99.90;;;;;;5080602;28;20176;-78
2022/07/12 09:48:29;;;;;;;7.20;5.53;;;27.50;99.90;;;;;;5095701;28;20206;-77
2022/07/12 09:50:57;;;;;;;6.95;4.72;;;27.70;1.00;;;;;;5089121;28;20234;-81
2022/07/12 09:53:42;;;;;;;5.88;4.75;;;27.90;99.90;;;;;;5076540;28;20176;-83
2022/07/12 09:56:12;;;;;;;6.93;5.30;;;28.00;1.00;;;;;;5074774;28;20149;-82
2022/07/12 09:58:58;;;;;;;6.93;5.15;;;28.00;99.90;;;;;;5073289;28;20168;-81
2022/07/12 10:01:25;;;;;;;7.47;5.70;;;28.00;29.60;;;;;;5072871;28;20709;-81
2022/07/12 10:03:52;;;;;;;7.90;5.55;;;28.10;1.00;;;;;;5073696;28;20529;-81
2022/07/12 10:06:28;;;;;;;6.50;5.60;;;28.30;1.00;;;;;;5072566;28;20168;-81
2022/07/12 10:08:57;;;;;;;5.95;4.90;;;28.30;99.90;;;;;;5074314;28;20176;-77
2022/07/12 10:11:26;;;;;;;6.13;5.32;;;28.20;99.90;;;;;;5074343;28;20193;-81
2022/07/12 10:13:54;;;;;;;8.95;5.40;;;28.20;1.00;;;;;;5075181;28;20168;-80
2022/07/12 10:16:28;;;;;;;7.55;5.15;;;28.10;1.00;;;;;;5085052;28;20268;-82
2022/07/12 10:19:25;;;;;;;5.43;4.90;;;28.20;1.00;;;;;;5080546;28;20192;-78
2022/07/12 10:21:56;;;;;;;8.40;4.97;;;28.40;1.00;;;;;;5086720;28;20183;-81
2022/07/12 10:24:33;;;;;;;6.38;4.72;;;28.40;99.90;;;;;;5076910;28;20226;-79
2022/07/12 10:27:20;;;;;;;5.90;4.50;;;28.20;99.90;;;;;;5077535;28;20247;-81
2022/07/12 10:29:52;;;;;;;7.80;4.30;;;28.30;99.90;;;;;;5077568;28;20172;-81
2022/07/12 10:32:25;;;;;;;6.80;4.90;;;28.50;25.70;;;;;;5077503;28;20530;-82
2022/07/12 10:35:07;;;;;;;5.85;4.60;;;28.70;1.00;;;;;;5077899;28;20221;-84
2022/07/12 10:37:34;;;;;;;6.82;4.40;;;28.80;1.00;;;;;;5077289;28;20176;-82
2022/07/12 10:40:19;;;;;;;5.13;4.35;;;28.90;99.90;;;;;;5077691;28;20207;-81
2022/07/12 10:43:00;;;;;;;6.60;4.80;;;29.10;99.90;;;;;;5078247;28;20174;-81
2022/07/12 10:45:33;;;;;;;5.20;4.22;;;29.20;99.90;;;;;;5077198;28;20191;-84
2022/07/12 10:48:19;;;;;;;5.35;3.72;;;29.20;46.60;;;;;;5076771;28;20204;-80
2022/07/12 10:50:44;;;;;;;5.57;3.95;;;29.20;1.00;;;;;;5079014;28;20191;-80
2022/07/12 10:53:20;;;;;;;5.32;3.92;;;29.30;99.90;;;;;;5091311;28;20163;-80
2022/07/12 10:56:04;;;;;;;5.75;4.22;;;29.40;99.90;;;;;;5097090;28;20164;-80
2022/07/12 10:58:34;;;;;;;5.97;4.13;;;29.20;99.90;;;;;;5082907;28;20164;-79
2022/07/12 11:01:03;;;;;;;4.40;4.00;;;29.40;99.90;;;;;;5080848;28;20272;-84
2022/07/12 11:03:46;;;;;;;4.82;4.30;;;29.60;99.90;;;;;;5077277;28;20229;-81
2022/07/12 11:06:14;;;;;;;5.90;4.00;;;29.80;66.70;;;;;;5076607;28;20172;-82
2022/07/12 11:08:59;;;;;;;5.57;4.03;;;29.80;1.00;;;;;;5077278;28;20176;-80
2022/07/12 11:11:33;;;;;;;4.97;3.20;;;29.80;1.00;;;;;;5077768;28;20171;-82
2022/07/12 11:14:00;;;;;;;4.47;3.58;;;29.90;1.00;;;;;;5096936;28;20164;-81
2022/07/12 11:16:26;;;;;;;5.28;2.75;;;29.80;99.90;;;;;;5085366;28;20180;-83
2022/07/12 11:18:53;;;;;;;5.47;3.50;;;30.00;99.90;;;;;;5077878;28;20263;-80
2022/07/12 11:21:19;;;;;;;5.90;4.38;;;30.10;99.90;;;;;;5077933;28;20172;-82
2022/07/12 11:23:45;;;;;;;6.07;3.72;;;30.10;99.90;;;;;;5077497;28;20170;-83
2022/07/12 11:26:12;;;;;;;4.10;3.70;;;29.70;99.90;;;;;;5080992;28;20168;-81
2022/07/12 11:28:40;;;;;;;7.47;3.47;;;29.70;99.90;;;;;;5081226;28;20164;-81
2022/07/12 11:31:11;;;;;;;4.93;3.60;;;29.80;99.90;;;;;;5078162;28;20223;-81
2022/07/12 11:33:42;;;;;;;4.97;3.70;;;29.90;99.90;;;;;;5079714;28;20175;-81
2022/07/12 11:36:09;;;;;;;4.78;3.40;;;29.90;99.90;;;;;;5076959;28;20170;-83
2022/07/12 11:38:37;;;;;;;4.45;3.58;;;30.10;99.90;;;;;;5076184;28;20247;-82
2022/07/12 11:41:05;;;;;;;5.13;3.60;;;30.00;99.90;;;;;;5077046;28;20673;-81
2022/07/12 11:43:32;;;;;;;7.03;3.85;;;30.20;99.90;;;;;;5076519;28;20164;-82
2022/07/12 11:45:59;;;;;;;4.75;3.53;;;30.40;41.90;;;;;;5077154;28;20168;-80
2022/07/12 11:48:25;;;;;;;5.68;4.10;;;30.50;6.40;;;;;;5078331;28;20265;-81
2022/07/12 11:50:52;;;;;;;4.13;3.63;;;30.50;5.40;;;;;;5078940;28;20628;-80
2022/07/12 11:53:23;;;;;;;4.53;3.50;;;30.40;1.00;;;;;;5095822;28;20163;-82
2022/07/12 11:55:55;;;;;;;3.80;3.47;;;30.60;1.00;;;;;;5094404;28;20160;-77
2022/07/12 11:58:21;;;;;;;5.85;3.67;;;30.40;1.00;;;;;;5095907;28;20197;-80
2022/07/12 12:00:48;;;;;;;4.90;3.75;;;30.30;1.00;;;;;;5091835;28;20291;-80
2022/07/12 12:03:18;;;;;;;4.13;3.10;;;30.40;1.00;;;;;;5078568;28;20220;-81
2022/07/12 12:05:46;;;;;;;5.28;3.90;;;30.40;1.00;;;;;;5077794;28;20655;-79
2022/07/12 12:08:14;;;;;;;5.60;3.85;;;30.10;1.00;;;;;;5076591;28;20555;-81
2022/07/12 12:10:41;;;;;;;6.00;4.40;;;30.10;1.00;;;;;;5078762;28;20164;-79
2022/07/12 12:13:17;;;;;;;5.97;4.15;;;30.10;1.00;;;;;;5075199;28;20539;-81
2022/07/12 12:15:57;;;;;;;5.32;4.82;;;30.10;1.00;;;;;;5077343;28;20171;-80
2022/07/12 12:18:39;;;;;;;4.93;3.88;;;30.20;1.00;;;;;;5074159;28;20194;-80
2022/07/12 12:21:08;;;;;;;5.10;3.67;;;30.10;1.00;;;;;;5074872;28;20218;-80
2022/07/12 12:23:36;;;;;;;5.47;3.60;;;29.90;1.00;;;;;;5074956;28;20214;-80
2022/07/12 12:26:23;;;;;;;4.28;3.33;;;29.50;1.00;;;;;;5075402;28;20164;-80
2022/07/12 12:28:50;;;;;;;5.38;4.03;;;29.50;1.00;;;;;;5074816;28;20201;-81
2022/07/12 12:31:19;;;;;;;5.93;3.83;;;29.30;1.00;;;;;;5074936;28;20168;-79
2022/07/12 12:33:51;;;;;;;5.60;3.72;;;29.50;1.00;;;;;;5073619;28;20180;-80
2022/07/12 12:36:22;;;;;;;4.97;3.60;;;29.60;1.00;;;;;;5075239;28;20717;-81
2022/07/12 12:38:56;;;;;;;5.38;3.40;;;29.80;1.00;;;;;;5074968;28;20184;-82
2022/07/12 12:41:23;;;;;;;3.92;3.40;;;30.10;1.00;;;;;;5074934;28;20225;-82
2022/07/12 12:43:58;;;;;;;4.57;3.35;;;30.00;1.00;;;;;;5094135;28;20162;-76
2022/07/12 12:46:44;;;;;;;4.22;3.38;;;30.10;1.00;;;;;;5095625;28;20182;-77
2022/07/12 12:49:10;;;;;;;3.80;3.05;;;30.50;1.00;;;;;;5093208;28;20156;-77
2022/07/12 12:51:51;;;;;;;4.30;3.03;;;30.50;99.90;;;;;;5094250;28;20175;-77
2022/07/12 12:54:34;;;;;;;5.28;3.30;;;30.00;99.90;;;;;;5087066;28;20168;-81
2022/07/12 12:57:00;;;;;;;5.22;3.40;;;30.10;99.90;;;;;;5078807;28;20210;-77
2022/07/12 12:59:26;;;;;;;5.05;3.08;;;30.10;99.90;;;;;;5076875;28;20196;-82
2022/07/12 13:01:52;;;;;;;4.47;2.92;;;30.00;99.90;;;;;;5075807;28;20505;-82
2022/07/12 13:04:17;;;;;;;4.32;2.90;;;30.30;99.90;;;;;;5083071;28;20752;-81
2022/07/12 13:06:43;;;;;;;3.83;2.90;;;30.70;99.90;;;;;;5095875;28;20152;-76
2022/07/12 13:09:09;;;;;;;3.65;2.92;;;30.70;99.90;;;;;;5097496;28;20160;-81